createdAt,value
2018-07-07T00:00:38.981Z,9.80
2018-07-07T00:01:38.975Z,9.00
2018-07-07T00:02:38.830Z,9.80
2018-07-07T00:03:38.703Z,9.80
2018-07-07T00:04:38.613Z,9.00
2018-07-07T00:05:38.523Z,8.70
2018-07-07T00:06:38.438Z,9.40
2018-07-07T00:07:38.366Z,9.20
2018-07-07T00:08:38.336Z,9.70
2018-07-07T00:09:38.156Z,9.00
2018-07-07T00:10:38.066Z,8.80
2018-07-07T00:11:37.971Z,9.00
2018-07-07T00:12:37.913Z,9.10
2018-07-07T00:13:37.785Z,8.60
2018-07-07T00:14:37.695Z,9.20
2018-07-07T00:15:37.696Z,8.90
2018-07-07T00:16:37.512Z,9.00
2018-07-07T00:17:37.454Z,9.10
2018-07-07T00:18:37.326Z,9.30
2018-07-07T00:19:37.237Z,9.40
2018-07-07T00:20:37.149Z,9.40
2018-07-07T00:21:37.053Z,7.80
2018-07-07T00:22:36.993Z,9.20
2018-07-07T00:23:36.868Z,10.10
2018-07-07T00:24:36.777Z,10.30
2018-07-07T00:25:36.687Z,10.20
2018-07-07T00:26:36.607Z,9.70
2018-07-07T00:27:36.536Z,9.00
2018-07-07T00:28:36.411Z,8.50
2018-07-07T00:29:36.320Z,9.30
2018-07-07T00:30:36.224Z,9.90
2018-07-07T00:31:36.134Z,10.40
2018-07-07T00:32:36.073Z,10.00
2018-07-07T00:33:35.949Z,8.30
2018-07-07T00:34:35.858Z,9.60
2018-07-07T00:35:35.767Z,9.90
2018-07-07T00:36:35.673Z,10.60
2018-07-07T00:37:35.617Z,11.40
2018-07-07T00:38:35.489Z,9.90
2018-07-07T00:39:35.397Z,9.00
2018-07-07T00:40:35.306Z,9.30
2018-07-07T00:41:35.213Z,9.70
2018-07-07T00:42:35.150Z,9.80
2018-07-07T00:43:35.032Z,9.30
2018-07-07T00:44:34.939Z,9.60
2018-07-07T00:45:34.844Z,9.40
2018-07-07T00:46:34.750Z,10.20
2018-07-07T00:47:34.661Z,9.70
2018-07-07T00:48:34.596Z,10.90
2018-07-07T00:49:34.476Z,10.70
2018-07-07T00:50:34.382Z,11.40
2018-07-07T00:51:34.291Z,10.80
2018-07-07T00:52:34.199Z,14.50
2018-07-07T00:53:34.138Z,12.10
2018-07-07T00:54:34.103Z,14.20
2018-07-07T00:55:33.922Z,14.70
2018-07-07T00:56:33.837Z,12.90
2018-07-07T00:57:33.740Z,13.90
2018-07-07T00:58:33.674Z,13.30
2018-07-07T00:59:33.556Z,13.40
2018-07-07T01:00:33.459Z,12.80
2018-07-07T01:01:33.366Z,11.30
2018-07-07T01:02:33.275Z,9.60
2018-07-07T01:03:33.213Z,10.10
2018-07-07T01:04:33.090Z,11.10
2018-07-07T01:05:33.001Z,11.00
2018-07-07T01:06:32.904Z,11.40
2018-07-07T01:07:32.818Z,12.80
2018-07-07T01:08:32.750Z,14.50
2018-07-07T01:09:32.708Z,14.60
2018-07-07T01:10:32.532Z,14.80
2018-07-07T01:11:32.443Z,11.30
2018-07-07T01:12:32.353Z,11.70
2018-07-07T01:13:32.292Z,15.00
2018-07-07T01:14:32.168Z,13.80
2018-07-07T01:15:32.073Z,16.50
2018-07-07T01:16:31.981Z,16.10
2018-07-07T01:17:31.886Z,13.60
2018-07-07T01:18:31.839Z,13.70
2018-07-07T01:19:31.703Z,12.70
2018-07-07T01:20:31.609Z,11.80
2018-07-07T01:21:31.516Z,11.70
2018-07-07T01:22:31.423Z,13.30
2018-07-07T01:23:31.365Z,13.50
2018-07-07T01:24:31.241Z,12.00
2018-07-07T01:25:31.145Z,12.10
2018-07-07T01:26:31.055Z,12.30
2018-07-07T01:27:30.966Z,11.80
2018-07-07T01:28:30.900Z,13.90
2018-07-07T01:29:30.775Z,11.80
2018-07-07T01:30:30.680Z,12.40
2018-07-07T01:31:30.592Z,12.10
2018-07-07T01:32:30.499Z,13.70
2018-07-07T01:33:30.434Z,13.70
2018-07-07T01:34:30.312Z,15.30
2018-07-07T01:35:30.221Z,16.70
2018-07-07T01:36:30.128Z,20.30
2018-07-07T01:37:30.031Z,20.70
2018-07-07T01:38:30.058Z,22.40
2018-07-07T01:39:29.845Z,20.10
2018-07-07T01:40:29.754Z,20.50
2018-07-07T01:41:29.662Z,19.00
2018-07-07T01:42:29.573Z,19.00
2018-07-07T01:43:29.504Z,19.10
2018-07-07T01:44:29.384Z,18.30
2018-07-07T01:45:29.288Z,18.40
2018-07-07T01:46:29.196Z,18.30
2018-07-07T01:47:29.106Z,18.90
2018-07-07T01:48:29.044Z,19.20
2018-07-07T01:49:28.918Z,15.60
2018-07-07T01:50:28.828Z,17.90
2018-07-07T01:51:28.736Z,11.90
2018-07-07T01:52:28.643Z,14.30
2018-07-07T01:53:28.579Z,16.00
2018-07-07T01:54:28.454Z,13.50
2018-07-07T01:55:28.362Z,18.60
2018-07-07T01:56:28.271Z,17.80
2018-07-07T01:57:28.178Z,14.30
2018-07-07T01:58:28.117Z,12.90
2018-07-07T01:59:28.095Z,13.10
2018-07-07T02:00:27.905Z,17.30
2018-07-07T02:01:27.803Z,17.20
2018-07-07T02:02:27.714Z,16.70
2018-07-07T02:03:27.656Z,18.60
2018-07-07T02:04:27.525Z,15.70
2018-07-07T02:05:27.432Z,20.90
2018-07-07T02:06:27.443Z,15.20
2018-07-07T02:07:27.246Z,18.40
2018-07-07T02:08:27.208Z,15.90
2018-07-07T02:09:27.084Z,16.80
2018-07-07T02:10:27.000Z,17.10
2018-07-07T02:11:26.875Z,18.50
2018-07-07T02:12:26.785Z,20.10
2018-07-07T02:13:26.784Z,21.00
2018-07-07T02:14:26.632Z,21.40
2018-07-07T02:15:26.504Z,20.10
2018-07-07T02:16:26.415Z,20.00
2018-07-07T02:17:26.318Z,19.50
2018-07-07T02:18:26.229Z,21.30
2018-07-07T02:19:26.172Z,21.00
2018-07-07T02:20:26.133Z,21.20
2018-07-07T02:21:25.946Z,21.00
2018-07-07T02:22:25.856Z,20.90
2018-07-07T02:23:25.765Z,21.40
2018-07-07T02:24:25.700Z,22.80
2018-07-07T02:25:25.576Z,22.70
2018-07-07T02:26:25.485Z,22.20
2018-07-07T02:27:25.480Z,22.30
2018-07-07T02:28:25.299Z,24.20
2018-07-07T02:29:25.233Z,25.20
2018-07-07T02:30:25.116Z,25.00
2018-07-07T02:31:25.020Z,26.20
2018-07-07T02:32:24.925Z,27.50
2018-07-07T02:33:24.838Z,27.20
2018-07-07T02:34:24.863Z,26.50
2018-07-07T02:35:24.646Z,23.90
2018-07-07T02:36:24.559Z,24.40
2018-07-07T02:37:24.459Z,25.20
2018-07-07T02:38:24.366Z,25.80
2018-07-07T02:39:24.315Z,26.50
2018-07-07T02:40:24.185Z,28.50
2018-07-07T02:41:24.177Z,29.70
2018-07-07T02:42:23.994Z,29.00
2018-07-07T02:43:23.901Z,30.80
2018-07-07T02:44:23.840Z,32.50
2018-07-07T02:45:23.714Z,31.20
2018-07-07T02:46:23.669Z,29.20
2018-07-07T02:47:23.529Z,27.80
2018-07-07T02:48:23.536Z,28.90
2018-07-07T02:49:23.378Z,30.00
2018-07-07T02:50:23.250Z,31.80
2018-07-07T02:51:23.156Z,31.20
2018-07-07T02:52:23.062Z,33.80
2018-07-07T02:53:22.970Z,30.80
2018-07-07T02:54:22.904Z,28.30
2018-07-07T02:55:22.876Z,27.70
2018-07-07T02:56:22.689Z,29.20
2018-07-07T02:57:22.609Z,30.60
2018-07-07T02:58:22.500Z,34.30
2018-07-07T02:59:22.440Z,33.30
2018-07-07T03:00:22.318Z,34.30
2018-07-07T03:01:22.222Z,32.30
2018-07-07T03:02:22.225Z,31.80
2018-07-07T03:03:22.072Z,35.30
2018-07-07T03:04:21.979Z,33.60
2018-07-07T03:05:21.848Z,33.90
2018-07-07T03:06:21.754Z,32.70
2018-07-07T03:07:21.663Z,34.20
2018-07-07T03:08:21.568Z,35.00
2018-07-07T03:09:21.513Z,33.60
2018-07-07T03:10:21.383Z,36.70
2018-07-07T03:11:21.292Z,32.10
2018-07-07T03:12:21.250Z,32.90
2018-07-07T03:13:21.101Z,32.40
2018-07-07T03:14:21.042Z,34.00
2018-07-07T03:15:20.917Z,28.60
2018-07-07T03:16:20.825Z,27.40
2018-07-07T03:17:20.729Z,21.50
2018-07-07T03:18:20.639Z,26.10
2018-07-07T03:19:20.574Z,28.60
2018-07-07T03:20:20.451Z,27.20
2018-07-07T03:21:20.356Z,28.30
2018-07-07T03:22:20.264Z,25.00
2018-07-07T03:23:20.193Z,26.10
2018-07-07T03:24:20.112Z,25.70
2018-07-07T03:25:19.983Z,24.90
2018-07-07T03:26:19.890Z,24.80
2018-07-07T03:27:19.798Z,25.80
2018-07-07T03:28:19.704Z,23.70
2018-07-07T03:29:19.641Z,24.30
2018-07-07T03:30:19.514Z,22.40
2018-07-07T03:31:19.423Z,22.20
2018-07-07T03:32:19.332Z,20.80
2018-07-07T03:33:19.234Z,20.10
2018-07-07T03:34:19.175Z,21.40
2018-07-07T03:35:19.050Z,19.40
2018-07-07T03:36:18.958Z,18.40
2018-07-07T03:37:18.864Z,18.40
2018-07-07T03:38:18.769Z,15.60
2018-07-07T03:39:18.707Z,15.30
2018-07-07T03:40:18.583Z,20.00
2018-07-07T03:41:18.489Z,22.40
2018-07-07T03:42:18.472Z,20.40
2018-07-07T03:43:18.304Z,17.80
2018-07-07T03:44:18.213Z,18.30
2018-07-07T03:45:18.149Z,15.80
2018-07-07T03:46:18.021Z,15.50
2018-07-07T03:47:17.931Z,14.60
2018-07-07T03:48:17.833Z,15.70
2018-07-07T03:49:17.764Z,16.20
2018-07-07T03:50:17.686Z,16.90
2018-07-07T03:51:17.557Z,16.40
2018-07-07T03:52:17.460Z,16.30
2018-07-07T03:53:17.365Z,16.00
2018-07-07T03:54:17.275Z,16.00
2018-07-07T03:55:17.215Z,17.50
2018-07-07T03:56:17.089Z,16.80
2018-07-07T03:57:16.990Z,19.20
2018-07-07T03:58:16.899Z,19.30
2018-07-07T03:59:16.806Z,19.70
2018-07-07T04:00:16.749Z,18.50
2018-07-07T04:01:16.621Z,16.00
2018-07-07T04:02:16.526Z,16.90
2018-07-07T04:03:16.432Z,16.40
2018-07-07T04:04:16.336Z,15.10
2018-07-07T04:05:16.275Z,15.50
2018-07-07T04:06:16.152Z,14.30
2018-07-07T04:07:16.113Z,15.60
2018-07-07T04:08:15.963Z,15.00
2018-07-07T04:09:15.868Z,14.20
2018-07-07T04:10:15.809Z,12.30
2018-07-07T04:11:15.681Z,11.50
2018-07-07T04:12:15.590Z,11.00
2018-07-07T04:13:15.494Z,9.80
2018-07-07T04:14:15.399Z,9.00
2018-07-07T04:15:15.336Z,8.60
2018-07-07T04:16:15.213Z,7.90
2018-07-07T04:17:15.122Z,7.30
2018-07-07T04:18:15.024Z,8.20
2018-07-07T04:19:14.933Z,7.20
2018-07-07T04:20:14.884Z,7.50
2018-07-07T04:21:14.746Z,7.30
2018-07-07T04:22:14.651Z,7.80
2018-07-07T04:23:14.558Z,6.10
2018-07-07T04:24:14.466Z,6.70
2018-07-07T04:25:14.402Z,7.20
2018-07-07T04:26:14.276Z,7.10
2018-07-07T04:27:14.182Z,8.70
2018-07-07T04:28:14.091Z,8.00
2018-07-07T04:29:14.000Z,6.90
2018-07-07T04:30:13.936Z,8.10
2018-07-07T04:31:13.813Z,6.80
2018-07-07T04:32:13.716Z,6.50
2018-07-07T04:33:13.621Z,8.70
2018-07-07T04:34:13.532Z,7.00
2018-07-07T04:35:13.467Z,7.20
2018-07-07T04:36:13.345Z,7.50
2018-07-07T04:37:13.250Z,7.30
2018-07-07T04:38:13.157Z,8.50
2018-07-07T04:39:13.065Z,7.70
2018-07-07T04:40:13.009Z,8.90
2018-07-07T04:41:12.877Z,7.90
2018-07-07T04:42:12.787Z,8.20
2018-07-07T04:43:12.693Z,8.00
2018-07-07T04:44:12.599Z,8.10
2018-07-07T04:45:12.535Z,8.20
2018-07-07T04:46:12.411Z,7.50
2018-07-07T04:47:12.320Z,8.20
2018-07-07T04:48:12.227Z,8.90
2018-07-07T04:49:12.132Z,8.90
2018-07-07T04:50:12.072Z,8.20
2018-07-07T04:51:11.958Z,9.30
2018-07-07T04:52:11.858Z,9.40
2018-07-07T04:53:11.761Z,9.80
2018-07-07T04:54:11.759Z,10.10
2018-07-07T04:55:11.610Z,9.70
2018-07-07T04:56:11.483Z,9.30
2018-07-07T04:57:11.391Z,9.60
2018-07-07T04:58:11.296Z,9.10
2018-07-07T04:59:11.208Z,8.60
2018-07-07T05:00:11.145Z,9.30
2018-07-07T05:01:11.023Z,54.70
2018-07-07T05:02:10.930Z,49.00
2018-07-07T05:03:10.843Z,38.20
2018-07-07T05:04:10.743Z,16.90
2018-07-07T05:05:10.682Z,9.70
2018-07-07T05:06:10.557Z,13.30
2018-07-07T05:07:10.467Z,37.60
2018-07-07T05:08:10.465Z,13.20
2018-07-07T05:09:10.281Z,11.40
2018-07-07T05:10:10.215Z,14.50
2018-07-07T05:11:10.097Z,18.80
2018-07-07T05:12:10.007Z,47.40
2018-07-07T05:13:09.911Z,18.30
2018-07-07T05:14:09.817Z,17.80
2018-07-07T05:15:09.822Z,15.00
2018-07-07T05:16:09.668Z,10.00
2018-07-07T05:17:09.595Z,12.30
2018-07-07T05:18:09.448Z,12.70
2018-07-07T05:19:09.358Z,7.90
2018-07-07T05:20:09.262Z,9.10
2018-07-07T05:21:09.201Z,9.00
2018-07-07T05:22:09.178Z,8.50
2018-07-07T05:23:08.988Z,7.80
2018-07-07T05:24:08.895Z,7.90
2018-07-07T05:25:08.806Z,8.40
2018-07-07T05:26:08.744Z,6.80
2018-07-07T05:27:08.625Z,8.90
2018-07-07T05:28:08.528Z,7.40
2018-07-07T05:29:08.534Z,7.00
2018-07-07T05:30:08.345Z,6.60
2018-07-07T05:31:08.282Z,7.50
2018-07-07T05:32:08.198Z,6.10
2018-07-07T05:33:08.068Z,8.20
2018-07-07T05:34:07.976Z,6.10
2018-07-07T05:35:07.887Z,5.60
2018-07-07T05:36:07.916Z,7.40
2018-07-07T05:37:07.715Z,7.00
2018-07-07T05:38:07.614Z,6.40
2018-07-07T05:39:07.516Z,6.20
2018-07-07T05:40:07.426Z,7.10
2018-07-07T05:41:07.364Z,5.90
2018-07-07T05:42:07.250Z,7.00
2018-07-07T05:43:07.256Z,6.50
2018-07-07T05:44:07.059Z,5.10
2018-07-07T05:45:06.971Z,6.00
2018-07-07T05:46:06.908Z,5.10
2018-07-07T05:47:06.787Z,8.00
2018-07-07T05:48:06.697Z,6.80
2018-07-07T05:49:06.603Z,6.60
2018-07-07T05:50:06.695Z,4.90
2018-07-07T05:51:06.452Z,6.30
2018-07-07T05:52:06.332Z,6.20
2018-07-07T05:53:06.241Z,7.00
2018-07-07T05:54:06.153Z,6.30
2018-07-07T05:55:06.063Z,5.50
2018-07-07T05:56:06.002Z,5.00
2018-07-07T05:57:05.966Z,5.40
2018-07-07T05:58:05.787Z,5.30
2018-07-07T05:59:05.698Z,6.90
2018-07-07T06:00:05.608Z,5.30
2018-07-07T06:01:05.545Z,5.50
2018-07-07T06:02:05.429Z,5.70
2018-07-07T06:03:05.337Z,5.60
2018-07-07T06:04:05.343Z,6.00
2018-07-07T06:05:05.153Z,5.70
2018-07-07T06:06:05.101Z,4.90
2018-07-07T06:07:04.972Z,7.70
2018-07-07T06:08:04.883Z,5.30
2018-07-07T06:09:04.796Z,4.80
2018-07-07T06:10:04.703Z,5.80
2018-07-07T06:11:04.644Z,5.80
2018-07-07T06:12:04.521Z,4.60
2018-07-07T06:13:04.433Z,5.30
2018-07-07T06:14:04.365Z,5.70
2018-07-07T06:15:04.251Z,5.60
2018-07-07T06:16:04.192Z,5.50
2018-07-07T06:17:04.071Z,5.50
2018-07-07T06:18:04.071Z,5.10
2018-07-07T06:19:03.891Z,5.40
2018-07-07T06:20:03.803Z,8.20
2018-07-07T06:21:03.743Z,4.90
2018-07-07T06:22:03.622Z,4.70
2018-07-07T06:23:03.532Z,4.90
2018-07-07T06:24:03.457Z,5.20
2018-07-07T06:25:03.348Z,5.80
2018-07-07T06:26:03.297Z,5.10
2018-07-07T06:27:03.171Z,4.30
2018-07-07T06:28:03.081Z,5.80
2018-07-07T06:29:02.989Z,6.20
2018-07-07T06:30:02.900Z,8.00
2018-07-07T06:31:02.842Z,5.70
2018-07-07T06:32:02.721Z,6.60
2018-07-07T06:33:02.629Z,6.50
2018-07-07T06:34:02.541Z,5.70
2018-07-07T06:35:02.451Z,5.20
2018-07-07T06:36:02.390Z,6.40
2018-07-07T06:37:02.271Z,6.60
2018-07-07T06:38:02.185Z,5.70
2018-07-07T06:39:02.097Z,5.60
2018-07-07T06:40:02.001Z,5.90
2018-07-07T06:41:01.947Z,5.70
2018-07-07T06:42:01.825Z,8.00
2018-07-07T06:43:01.733Z,5.30
2018-07-07T06:44:01.644Z,4.80
2018-07-07T06:45:01.568Z,5.00
2018-07-07T06:46:01.470Z,5.30
2018-07-07T06:47:01.411Z,5.00
2018-07-07T06:48:01.289Z,4.60
2018-07-07T06:49:01.199Z,5.10
2018-07-07T06:50:01.109Z,5.60
2018-07-07T06:51:01.025Z,5.80
2018-07-07T06:52:00.963Z,5.30
2018-07-07T06:53:00.844Z,5.10
2018-07-07T06:54:00.914Z,4.60
2018-07-07T06:55:00.670Z,6.90
2018-07-07T06:56:00.594Z,4.60
2018-07-07T06:57:00.524Z,5.00
2018-07-07T06:58:00.406Z,5.40
2018-07-07T06:59:00.320Z,6.00
2018-07-07T07:00:00.286Z,3.60
2018-07-07T07:01:00.150Z,5.70
2018-07-07T07:02:00.096Z,6.70
2018-07-07T07:02:59.973Z,6.10
2018-07-07T07:03:59.885Z,5.20
2018-07-07T07:04:59.801Z,4.00
2018-07-07T07:05:59.711Z,5.00
2018-07-07T07:06:59.674Z,6.60
2018-07-07T07:07:59.539Z,5.10
2018-07-07T07:08:59.457Z,5.30
2018-07-07T07:09:59.371Z,4.50
2018-07-07T07:10:59.281Z,3.60
2018-07-07T07:11:59.293Z,4.80
2018-07-07T07:12:59.111Z,6.20
2018-07-07T07:13:59.024Z,5.20
2018-07-07T07:14:58.938Z,5.10
2018-07-07T07:15:58.851Z,6.70
2018-07-07T07:16:58.795Z,7.80
2018-07-07T07:17:58.678Z,5.30
2018-07-07T07:18:58.594Z,5.80
2018-07-07T07:19:58.545Z,3.70
2018-07-07T07:20:58.421Z,6.20
2018-07-07T07:21:58.374Z,4.70
2018-07-07T07:22:58.248Z,6.40
2018-07-07T07:23:58.164Z,5.50
2018-07-07T07:24:58.079Z,4.80
2018-07-07T07:25:58.134Z,6.80
2018-07-07T07:26:57.939Z,5.40
2018-07-07T07:27:57.818Z,6.10
2018-07-07T07:28:57.736Z,3.90
2018-07-07T07:29:57.646Z,6.10
2018-07-07T07:30:57.563Z,5.00
2018-07-07T07:31:57.511Z,6.00
2018-07-07T07:32:57.493Z,6.10
2018-07-07T07:33:57.304Z,5.20
2018-07-07T07:34:57.221Z,6.20
2018-07-07T07:35:57.134Z,6.00
2018-07-07T07:36:57.122Z,4.90
2018-07-07T07:37:56.969Z,6.80
2018-07-07T07:38:56.876Z,5.10
2018-07-07T07:39:56.897Z,4.80
2018-07-07T07:40:56.704Z,5.00
2018-07-07T07:41:56.651Z,4.60
2018-07-07T07:42:56.533Z,4.90
2018-07-07T07:43:56.444Z,5.40
2018-07-07T07:44:56.360Z,5.50
2018-07-07T07:45:56.276Z,6.40
2018-07-07T07:46:56.313Z,2.80
2018-07-07T07:47:56.101Z,2.90
2018-07-07T07:48:56.016Z,4.80
2018-07-07T07:49:55.952Z,5.00
2018-07-07T07:50:55.846Z,4.70
2018-07-07T07:51:55.790Z,3.90
2018-07-07T07:52:55.674Z,3.80
2018-07-07T07:53:55.679Z,4.00
2018-07-07T07:54:55.504Z,7.10
2018-07-07T07:55:55.415Z,4.80
2018-07-07T07:56:55.363Z,3.60
2018-07-07T07:57:55.243Z,3.60
2018-07-07T07:58:55.202Z,3.40
2018-07-07T07:59:55.078Z,4.60
2018-07-07T08:00:55.097Z,4.30
2018-07-07T08:01:54.933Z,3.10
2018-07-07T08:02:54.817Z,2.80
2018-07-07T08:03:54.731Z,3.60
2018-07-07T08:04:54.709Z,3.10
2018-07-07T08:05:54.561Z,3.80
2018-07-07T08:06:54.508Z,3.70
2018-07-07T08:07:54.484Z,4.70
2018-07-07T08:08:54.305Z,2.50
2018-07-07T08:09:54.221Z,2.60
2018-07-07T08:10:54.133Z,2.60
2018-07-07T08:11:54.076Z,4.20
2018-07-07T08:12:53.959Z,3.80
2018-07-07T08:13:53.875Z,3.00
2018-07-07T08:14:53.881Z,2.70
2018-07-07T08:15:53.704Z,3.30
2018-07-07T08:16:53.627Z,3.10
2018-07-07T08:17:53.568Z,2.90
2018-07-07T08:18:53.449Z,3.60
2018-07-07T08:19:53.366Z,4.50
2018-07-07T08:20:53.318Z,2.30
2018-07-07T08:21:53.318Z,3.60
2018-07-07T08:22:53.165Z,4.30
2018-07-07T08:23:53.026Z,4.10
2018-07-07T08:24:52.942Z,2.50
2018-07-07T08:25:52.858Z,2.70
2018-07-07T08:26:52.773Z,4.30
2018-07-07T08:27:52.724Z,3.90
2018-07-07T08:28:52.696Z,4.50
2018-07-07T08:29:52.523Z,2.50
2018-07-07T08:30:52.438Z,3.30
2018-07-07T08:31:52.359Z,2.80
2018-07-07T08:32:52.304Z,2.00
2018-07-07T08:33:52.194Z,2.70
2018-07-07T08:34:52.107Z,2.50
2018-07-07T08:35:52.020Z,3.60
2018-07-07T08:36:51.940Z,3.20
2018-07-07T08:37:51.889Z,1.70
2018-07-07T08:38:51.774Z,5.40
2018-07-07T08:39:51.693Z,4.00
2018-07-07T08:40:51.608Z,2.60
2018-07-07T08:41:51.548Z,3.70
2018-07-07T08:42:51.571Z,2.60
2018-07-07T08:43:51.364Z,2.40
2018-07-07T08:44:51.278Z,1.90
2018-07-07T08:45:51.205Z,1.90
2018-07-07T08:46:51.116Z,2.90
2018-07-07T08:47:51.067Z,2.60
2018-07-07T08:48:51.044Z,3.60
2018-07-07T08:49:50.866Z,1.70
2018-07-07T08:50:50.788Z,2.30
2018-07-07T08:51:50.707Z,2.90
2018-07-07T08:52:50.658Z,2.40
2018-07-07T08:53:50.546Z,4.10
2018-07-07T08:54:50.462Z,2.90
2018-07-07T08:55:50.382Z,2.80
2018-07-07T08:56:50.299Z,3.70
2018-07-07T08:57:50.250Z,2.40
2018-07-07T08:58:50.135Z,2.00
2018-07-07T08:59:50.054Z,2.70
2018-07-07T09:00:49.971Z,3.50
2018-07-07T09:01:49.894Z,4.30
2018-07-07T09:02:49.839Z,3.40
2018-07-07T09:03:49.727Z,3.70
2018-07-07T09:04:49.643Z,5.10
2018-07-07T09:05:49.564Z,3.30
2018-07-07T09:06:49.484Z,2.50
2018-07-07T09:07:49.461Z,3.70
2018-07-07T09:08:49.316Z,2.80
2018-07-07T09:09:49.234Z,3.30
2018-07-07T09:10:49.155Z,2.20
2018-07-07T09:11:49.071Z,2.50
2018-07-07T09:12:49.029Z,3.10
2018-07-07T09:13:48.910Z,3.80
2018-07-07T09:14:48.826Z,2.20
2018-07-07T09:15:48.752Z,3.80
2018-07-07T09:16:48.663Z,3.30
2018-07-07T09:17:48.612Z,3.80
2018-07-07T09:18:48.533Z,4.00
2018-07-07T09:19:48.422Z,4.30
2018-07-07T09:20:48.338Z,4.50
2018-07-07T09:21:48.257Z,1.80
2018-07-07T09:22:48.206Z,1.90
2018-07-07T09:23:48.093Z,3.10
2018-07-07T09:24:48.014Z,3.70
2018-07-07T09:25:47.934Z,2.10
2018-07-07T09:26:47.851Z,1.70
2018-07-07T09:27:47.804Z,1.90
2018-07-07T09:28:47.693Z,6.40
2018-07-07T09:29:47.619Z,2.40
2018-07-07T09:30:47.571Z,3.20
2018-07-07T09:31:47.450Z,3.00
2018-07-07T09:32:47.401Z,1.90
2018-07-07T09:33:47.282Z,1.50
2018-07-07T09:34:47.205Z,2.50
2018-07-07T09:35:47.126Z,1.40
2018-07-07T09:36:47.045Z,2.20
2018-07-07T09:37:47.002Z,2.00
2018-07-07T09:38:46.926Z,3.10
2018-07-07T09:39:46.805Z,2.10
2018-07-07T09:40:46.725Z,2.30
2018-07-07T09:41:46.645Z,1.70
2018-07-07T09:42:46.597Z,1.40
2018-07-07T09:43:46.487Z,2.10
2018-07-07T09:44:46.402Z,1.50
2018-07-07T09:45:46.328Z,2.50
2018-07-07T09:46:46.246Z,2.40
2018-07-07T09:47:46.169Z,2.30
2018-07-07T09:48:46.120Z,2.20
2018-07-07T09:49:46.006Z,1.80
2018-07-07T09:50:45.927Z,2.40
2018-07-07T09:51:45.845Z,0.80
2018-07-07T09:52:45.768Z,1.50
2018-07-07T09:53:45.717Z,1.90
2018-07-07T09:54:45.605Z,2.10
2018-07-07T09:55:45.530Z,1.90
2018-07-07T09:56:45.447Z,3.70
2018-07-07T09:57:45.370Z,2.00
2018-07-07T09:58:45.320Z,1.80
2018-07-07T09:59:45.212Z,2.00
2018-07-07T10:00:45.133Z,1.90
2018-07-07T10:01:45.052Z,2.00
2018-07-07T10:02:44.974Z,1.50
2018-07-07T10:03:44.924Z,1.50
2018-07-07T10:04:44.812Z,3.00
2018-07-07T10:05:44.734Z,2.70
2018-07-07T10:06:44.659Z,1.80
2018-07-07T10:07:44.672Z,2.50
2018-07-07T10:08:44.526Z,1.70
2018-07-07T10:09:44.417Z,2.50
2018-07-07T10:10:44.342Z,3.30
2018-07-07T10:11:44.260Z,1.90
2018-07-07T10:12:44.183Z,2.80
2018-07-07T10:13:44.135Z,1.80
2018-07-07T10:14:44.024Z,2.90
2018-07-07T10:15:43.947Z,2.10
2018-07-07T10:16:43.865Z,2.20
2018-07-07T10:17:43.790Z,1.70
2018-07-07T10:18:43.752Z,1.70
2018-07-07T10:19:43.630Z,2.60
2018-07-07T10:20:43.604Z,1.40
2018-07-07T10:21:43.478Z,3.30
2018-07-07T10:22:43.393Z,1.60
2018-07-07T10:23:43.344Z,1.90
2018-07-07T10:24:43.235Z,2.30
2018-07-07T10:25:43.155Z,3.80
2018-07-07T10:26:43.077Z,1.40
2018-07-07T10:27:42.997Z,2.10
2018-07-07T10:28:42.951Z,1.80
2018-07-07T10:29:42.837Z,1.80
2018-07-07T10:30:42.760Z,3.00
2018-07-07T10:31:42.686Z,1.90
2018-07-07T10:32:42.601Z,3.00
2018-07-07T10:33:42.555Z,1.40
2018-07-07T10:34:42.443Z,2.70
2018-07-07T10:35:42.364Z,2.60
2018-07-07T10:36:42.286Z,2.50
2018-07-07T10:37:42.208Z,1.70
2018-07-07T10:38:42.160Z,1.80
2018-07-07T10:39:42.055Z,2.30
2018-07-07T10:40:41.977Z,1.80
2018-07-07T10:41:41.890Z,2.20
2018-07-07T10:42:41.815Z,1.80
2018-07-07T10:43:41.770Z,1.40
2018-07-07T10:44:41.658Z,1.70
2018-07-07T10:45:41.662Z,1.40
2018-07-07T10:46:41.497Z,1.60
2018-07-07T10:47:41.425Z,1.80
2018-07-07T10:48:41.738Z,2.50
2018-07-07T10:49:41.262Z,1.70
2018-07-07T10:50:41.184Z,2.10
2018-07-07T10:51:41.103Z,2.40
2018-07-07T10:52:41.026Z,1.90
2018-07-07T10:53:40.985Z,1.10
2018-07-07T10:54:40.869Z,1.70
2018-07-07T10:55:40.881Z,2.00
2018-07-07T10:56:40.711Z,2.10
2018-07-07T10:57:40.630Z,1.80
2018-07-07T10:58:40.589Z,2.50
2018-07-07T10:59:40.473Z,2.40
2018-07-07T11:00:40.394Z,3.10
2018-07-07T11:01:40.314Z,1.80
2018-07-07T11:02:40.476Z,3.00
2018-07-07T11:03:40.187Z,1.80
2018-07-07T11:04:40.078Z,2.90
2018-07-07T11:05:40.002Z,1.90
2018-07-07T11:06:39.926Z,1.90
2018-07-07T11:07:39.843Z,2.20
2018-07-07T11:08:39.794Z,1.70
2018-07-07T11:09:39.777Z,2.10
2018-07-07T11:10:39.606Z,3.60
2018-07-07T11:11:39.533Z,1.30
2018-07-07T11:12:39.446Z,0.80
2018-07-07T11:13:39.401Z,1.80
2018-07-07T11:14:39.293Z,2.50
2018-07-07T11:15:39.213Z,2.60
2018-07-07T11:16:39.223Z,1.40
2018-07-07T11:17:39.071Z,1.60
2018-07-07T11:18:38.982Z,2.50
2018-07-07T11:19:38.928Z,2.60
2018-07-07T11:20:38.818Z,0.80
2018-07-07T11:21:38.747Z,1.90
2018-07-07T11:22:38.662Z,2.70
2018-07-07T11:23:38.679Z,2.00
2018-07-07T11:24:38.538Z,1.70
2018-07-07T11:25:38.433Z,1.80
2018-07-07T11:26:38.348Z,1.90
2018-07-07T11:27:38.271Z,1.30
2018-07-07T11:28:38.194Z,2.60
2018-07-07T11:29:38.150Z,2.20
2018-07-07T11:30:38.126Z,1.10
2018-07-07T11:31:37.956Z,2.00
2018-07-07T11:32:37.876Z,0.70
2018-07-07T11:33:37.801Z,1.80
2018-07-07T11:34:37.754Z,1.10
2018-07-07T11:35:37.643Z,1.50
2018-07-07T11:36:37.797Z,3.00
2018-07-07T11:37:37.488Z,2.40
2018-07-07T11:38:37.406Z,3.00
2018-07-07T11:39:37.363Z,1.90
2018-07-07T11:40:37.252Z,1.60
2018-07-07T11:41:37.172Z,1.10
2018-07-07T11:42:37.097Z,1.50
2018-07-07T11:43:37.015Z,1.30
2018-07-07T11:44:36.964Z,0.80
2018-07-07T11:45:36.860Z,1.40
2018-07-07T11:46:36.778Z,1.40
2018-07-07T11:47:36.699Z,10.00
2018-07-07T11:48:36.623Z,0.70
2018-07-07T11:49:36.573Z,2.10
2018-07-07T11:50:36.473Z,5.50
2018-07-07T11:51:36.385Z,1.00
2018-07-07T11:52:36.312Z,1.20
2018-07-07T11:53:36.227Z,1.60
2018-07-07T11:54:36.179Z,2.10
2018-07-07T11:55:36.071Z,1.00
2018-07-07T11:56:35.991Z,2.20
2018-07-07T11:57:35.914Z,0.90
2018-07-07T11:58:35.838Z,1.30
2018-07-07T11:59:35.793Z,2.30
2018-07-07T12:00:35.680Z,1.90
2018-07-07T12:01:35.605Z,1.70
2018-07-07T12:02:35.529Z,1.50
2018-07-07T12:03:35.445Z,2.50
2018-07-07T12:04:35.450Z,1.70
2018-07-07T12:05:35.291Z,1.80
2018-07-07T12:06:35.211Z,2.20
2018-07-07T12:07:35.136Z,1.10
2018-07-07T12:08:35.058Z,1.60
2018-07-07T12:09:35.010Z,1.90
2018-07-07T12:10:34.899Z,1.10
2018-07-07T12:11:34.902Z,1.80
2018-07-07T12:12:34.743Z,1.70
2018-07-07T12:13:34.663Z,1.60
2018-07-07T12:14:34.618Z,1.50
2018-07-07T12:15:34.506Z,1.30
2018-07-07T12:16:34.428Z,1.00
2018-07-07T12:17:34.542Z,1.20
2018-07-07T12:18:34.273Z,1.50
2018-07-07T12:19:34.227Z,1.70
2018-07-07T12:20:34.114Z,1.30
2018-07-07T12:21:34.040Z,1.80
2018-07-07T12:22:33.960Z,1.40
2018-07-07T12:23:33.879Z,1.80
2018-07-07T12:24:33.832Z,1.70
2018-07-07T12:25:33.724Z,2.90
2018-07-07T12:26:33.652Z,1.60
2018-07-07T12:27:33.583Z,1.40
2018-07-07T12:28:33.491Z,2.20
2018-07-07T12:29:33.461Z,1.60
2018-07-07T12:30:33.337Z,2.30
2018-07-07T12:31:33.351Z,2.40
2018-07-07T12:32:33.178Z,2.70
2018-07-07T12:33:33.100Z,1.50
2018-07-07T12:34:33.057Z,1.40
2018-07-07T12:35:32.946Z,1.40
2018-07-07T12:36:32.881Z,1.10
2018-07-07T12:37:32.790Z,1.40
2018-07-07T12:38:32.711Z,1.60
2018-07-07T12:39:32.667Z,3.30
2018-07-07T12:40:32.611Z,2.90
2018-07-07T12:41:32.480Z,1.90
2018-07-07T12:42:32.402Z,1.90
2018-07-07T12:43:32.369Z,1.00
2018-07-07T12:44:32.279Z,2.10
2018-07-07T12:45:32.167Z,2.60
2018-07-07T12:46:32.091Z,1.90
2018-07-07T12:47:32.012Z,3.00
2018-07-07T12:48:31.935Z,1.30
2018-07-07T12:49:31.888Z,3.20
2018-07-07T12:50:31.779Z,1.20
2018-07-07T12:51:31.703Z,2.20
2018-07-07T12:52:31.637Z,1.10
2018-07-07T12:53:31.546Z,2.10
2018-07-07T12:54:31.473Z,1.00
2018-07-07T12:55:31.427Z,0.90
2018-07-07T12:56:31.314Z,1.70
2018-07-07T12:57:31.237Z,2.30
2018-07-07T12:58:31.156Z,1.00
2018-07-07T12:59:31.084Z,1.30
2018-07-07T13:00:31.033Z,1.20
2018-07-07T13:01:30.929Z,2.10
2018-07-07T13:02:30.849Z,1.00
2018-07-07T13:03:30.770Z,1.20
2018-07-07T13:04:30.699Z,1.90
2018-07-07T13:05:30.644Z,1.10
2018-07-07T13:06:30.537Z,0.70
2018-07-07T13:07:30.476Z,3.00
2018-07-07T13:08:30.383Z,1.20
2018-07-07T13:09:30.306Z,0.70